Time;durP1;ratioP1;P1;durP2;ratioP2;P2;SDS_P1;SDS_P2;PMS_P1;PMS_P2;Temp;Humidity;BMP_temperature;BMP_pressure;BME280_temperature;BME280_humidity;BME280_pressure;Samples;Min_cycle;Max_cycle;Signal;HPM_P1;HPM_P2
2022/04/30 00:00:40;;;;;;;0.00;0.00;;;16.50;99.90;;;;;;5042509;28;20392;-73
2022/04/30 00:03:07;;;;;;;0.00;0.00;;;16.60;99.90;;;;;;5052783;28;20049;-72
2022/04/30 00:05:34;;;;;;;0.20;0.20;;;16.70;99.90;;;;;;5052639;28;20056;-72
2022/04/30 00:08:03;;;;;;;0.00;0.00;;;16.70;99.90;;;;;;5051455;28;20102;-72
2022/04/30 00:10:31;;;;;;;0.00;0.00;;;16.60;99.90;;;;;;5052109;28;20083;-72
2022/04/30 00:12:58;;;;;;;0.00;0.00;;;16.70;99.90;;;;;;5036495;28;20053;-73
2022/04/30 00:15:24;;;;;;;0.00;0.00;;;16.80;99.90;;;;;;5031371;28;20405;-72
2022/04/30 00:17:51;;;;;;;0.00;0.00;;;16.80;99.90;;;;;;5046475;28;20435;-72
2022/04/30 00:20:17;;;;;;;0.00;0.00;;;16.90;99.90;;;;;;5034728;28;20071;-72
2022/04/30 00:22:44;;;;;;;0.00;0.00;;;16.90;99.90;;;;;;5039131;28;20053;-72
2022/04/30 00:25:10;;;;;;;0.00;0.00;;;16.90;99.90;;;;;;5041743;28;20025;-72
2022/04/30 00:27:36;;;;;;;0.00;0.00;;;16.90;99.90;;;;;;5051292;28;20033;-73
2022/04/30 00:30:03;;;;;;;0.00;0.00;;;17.00;99.90;;;;;;5051564;28;20021;-72
2022/04/30 00:32:31;;;;;;;0.00;0.00;;;17.10;99.90;;;;;;5051758;28;20090;-72
2022/04/30 00:34:57;;;;;;;0.00;0.00;;;17.30;99.90;;;;;;5052416;28;20025;-72
2022/04/30 00:37:23;;;;;;;0.00;0.00;;;17.30;99.90;;;;;;5050342;28;20477;-72
2022/04/30 00:39:49;;;;;;;0.00;0.00;;;17.50;99.90;;;;;;5038198;28;20298;-73
2022/04/30 00:42:15;;;;;;;0.00;0.00;;;17.50;99.90;;;;;;5051941;28;20021;-72
2022/04/30 00:44:43;;;;;;;8.68;3.20;;;17.60;99.90;;;;;;5051545;28;20029;-72
2022/04/30 00:47:16;;;;;;;0.00;0.00;;;17.60;99.90;;;;;;5049944;28;20029;-72
2022/04/30 00:49:42;;;;;;;0.00;0.00;;;17.70;99.90;;;;;;5040563;28;20043;-73
2022/04/30 00:52:13;;;;;;;0.00;0.00;;;17.60;99.90;;;;;;5042795;28;20055;-72
2022/04/30 00:54:40;;;;;;;0.00;0.00;;;17.70;99.90;;;;;;5035008;28;20026;-72
2022/04/30 00:57:13;;;;;;;0.00;0.00;;;17.70;99.90;;;;;;5045928;28;20476;-72
2022/04/30 00:59:40;;;;;;;0.00;0.00;;;17.80;99.90;;;;;;5050612;28;20028;-72
2022/04/30 01:02:11;;;;;;;0.03;0.03;;;17.90;99.90;;;;;;5052201;28;20021;-72
2022/04/30 01:04:37;;;;;;;0.00;0.00;;;18.10;99.90;;;;;;5052363;28;20481;-71
2022/04/30 01:07:07;;;;;;;0.00;0.00;;;18.10;99.90;;;;;;5048601;28;20481;-72
2022/04/30 01:09:37;;;;;;;0.00;0.00;;;18.00;99.90;;;;;;5050327;28;20190;-72
2022/04/30 01:12:08;;;;;;;0.00;0.00;;;17.90;99.90;;;;;;5052055;28;20039;-72
2022/04/30 01:14:35;;;;;;;0.00;0.00;;;17.90;99.90;;;;;;5043091;28;20047;-72
2022/04/30 01:17:06;;;;;;;1.92;1.77;;;17.70;99.90;;;;;;5046414;28;20039;-72
2022/04/30 01:19:36;;;;;;;1.40;1.30;;;18.00;99.90;;;;;;5049863;28;20056;-72
2022/04/30 01:22:08;;;;;;;0.20;0.20;;;18.20;99.90;;;;;;5039821;28;20075;-72
2022/04/30 01:24:36;;;;;;;0.00;0.00;;;18.50;98.00;;;;;;5051252;28;20559;-72
2022/04/30 01:27:04;;;;;;;7.60;6.80;;;18.60;96.30;;;;;;5045323;28;20124;-72
2022/04/30 01:29:30;;;;;;;0.00;0.00;;;18.60;98.40;;;;;;5033125;28;20056;-72
2022/04/30 01:37:28;;;;;;;2.63;0.75;;;18.10;99.90;;;;;;5044485;28;20551;-72
2022/04/30 01:40:00;;;;;;;0.10;0.10;;;18.50;99.90;;;;;;5050774;28;20029;-72
2022/04/30 01:42:33;;;;;;;0.52;0.52;;;18.50;99.90;;;;;;5054230;28;20021;-71
2022/04/30 01:44:59;;;;;;;0.38;0.38;;;18.50;99.90;;;;;;5046151;28;20033;-72
2022/04/30 01:47:28;;;;;;;0.00;0.00;;;18.50;99.20;;;;;;5034040;28;20022;-72
2022/04/30 01:49:54;;;;;;;0.00;0.00;;;18.60;98.60;;;;;;5035315;28;20021;-72
2022/04/30 01:52:20;;;;;;;0.00;0.00;;;18.50;98.00;;;;;;5035845;28;20057;-73
2022/04/30 01:54:46;;;;;;;0.00;0.00;;;18.60;96.70;;;;;;5042584;28;20036;-71
2022/04/30 01:57:13;;;;;;;0.65;0.65;;;18.70;96.50;;;;;;5053421;28;20213;-72
2022/04/30 01:59:40;;;;;;;3.50;2.08;;;18.70;96.50;;;;;;5053624;28;20361;-72
2022/04/30 02:02:06;;;;;;;0.00;0.00;;;18.60;97.80;;;;;;5049154;28;20017;-72
2022/04/30 02:04:35;;;;;;;4.95;4.75;;;18.70;99.90;;;;;;5050831;28;20013;-72
2022/04/30 02:07:02;;;;;;;0.10;0.10;;;18.60;99.90;;;;;;5035600;28;20034;-74
2022/04/30 02:09:31;;;;;;;0.03;0.03;;;18.70;99.90;;;;;;5035966;28;20052;-72
2022/04/30 02:11:59;;;;;;;6.72;6.03;;;18.50;99.90;;;;;;5043807;28;20079;-72
2022/04/30 02:14:33;;;;;;;0.50;0.50;;;18.50;99.90;;;;;;5042226;28;20104;-73
2022/04/30 02:17:00;;;;;;;0.43;0.43;;;18.70;99.90;;;;;;5049417;28;20029;-72
2022/04/30 02:19:28;;;;;;;0.00;0.00;;;18.60;99.90;;;;;;5045042;28;20435;-73
2022/04/30 02:21:58;;;;;;;0.00;0.00;;;18.60;99.90;;;;;;5040984;28;20022;-72
2022/04/30 02:24:28;;;;;;;0.20;0.20;;;18.80;99.90;;;;;;5042826;28;20029;-72
2022/04/30 02:26:54;;;;;;;0.17;0.17;;;18.70;99.90;;;;;;5044445;28;20033;-72
2022/04/30 02:29:20;;;;;;;0.00;0.00;;;18.70;99.90;;;;;;5049219;28;20044;-72
2022/04/30 02:31:47;;;;;;;0.00;0.00;;;18.80;99.90;;;;;;5039038;28;20156;-73
2022/04/30 02:34:14;;;;;;;0.10;0.05;;;18.80;99.90;;;;;;5036732;28;20022;-72
2022/04/30 02:36:40;;;;;;;0.00;0.00;;;18.70;99.90;;;;;;5054366;28;20350;-72
2022/04/30 02:39:06;;;;;;;0.00;0.00;;;18.60;99.90;;;;;;5049790;28;20384;-73
2022/04/30 02:41:34;;;;;;;0.00;0.00;;;18.70;99.90;;;;;;5049021;28;20473;-73
2022/04/30 02:44:00;;;;;;;0.00;0.00;;;18.40;99.90;;;;;;5043921;28;20029;-73
2022/04/30 02:46:26;;;;;;;0.00;0.00;;;18.40;99.90;;;;;;5040363;28;20112;-72
2022/04/30 02:48:52;;;;;;;0.57;0.45;;;18.30;99.90;;;;;;5037515;28;20033;-72
2022/04/30 02:51:18;;;;;;;7.35;4.85;;;18.60;99.90;;;;;;5053679;28;20357;-73
2022/04/30 02:53:45;;;;;;;0.10;0.10;;;19.00;99.90;;;;;;5048017;28;20609;-73
2022/04/30 02:56:11;;;;;;;0.00;0.00;;;19.20;99.90;;;;;;5044006;28;20084;-72
2022/04/30 03:01:22;;;;;;;0.00;0.00;;;19.30;99.90;;;;;;5045743;28;20028;-73
2022/04/30 03:03:48;;;;;;;0.00;0.00;;;19.40;99.90;;;;;;5033876;28;20087;-72
2022/04/30 03:06:16;;;;;;;0.00;0.00;;;19.30;99.90;;;;;;5042642;28;20033;-72
2022/04/30 03:08:48;;;;;;;0.10;0.10;;;19.20;99.90;;;;;;5034828;28;20079;-73
2022/04/30 03:11:15;;;;;;;0.47;0.47;;;19.20;99.90;;;;;;5033537;28;20104;-73
2022/04/30 03:13:41;;;;;;;0.00;0.00;;;19.10;99.90;;;;;;5040787;28;20448;-72
2022/04/30 03:21:47;;;;;;;0.00;0.00;;;19.40;99.90;;;;;;5033515;28;20071;-72
2022/04/30 03:24:18;;;;;;;0.32;0.32;;;19.60;99.90;;;;;;5033364;28;20381;-73
2022/04/30 03:26:49;;;;;;;0.32;0.32;;;19.90;99.90;;;;;;5043222;28;20037;-73
2022/04/30 03:29:15;;;;;;;0.60;0.60;;;19.90;99.90;;;;;;5051313;28;20025;-73
2022/04/30 03:31:42;;;;;;;0.00;0.00;;;19.70;99.90;;;;;;5045248;28;20025;-73
2022/04/30 03:34:09;;;;;;;0.00;0.00;;;19.40;99.90;;;;;;5053261;28;20025;-73
2022/04/30 03:36:36;;;;;;;1.80;1.80;;;19.30;99.90;;;;;;5053076;28;20059;-73
2022/04/30 03:39:06;;;;;;;35.92;34.17;;;19.40;99.90;;;;;;5043431;28;20045;-73
2022/04/30 03:41:32;;;;;;;0.00;0.00;;;19.20;99.90;;;;;;5031703;28;20448;-73
2022/04/30 03:43:58;;;;;;;0.00;0.00;;;19.30;99.90;;;;;;5033073;28;20456;-73
2022/04/30 03:46:24;;;;;;;0.00;0.00;;;19.50;99.90;;;;;;5033088;28;20120;-73
2022/04/30 03:48:56;;;;;;;0.00;0.00;;;19.50;99.90;;;;;;5032917;28;20470;-73
2022/04/30 03:51:23;;;;;;;1.80;1.75;;;19.50;99.90;;;;;;5031587;28;20028;-73
2022/04/30 03:53:50;;;;;;;0.52;0.47;;;19.80;99.90;;;;;;5032739;28;20050;-73
2022/04/30 03:56:17;;;;;;;0.30;0.30;;;20.10;99.90;;;;;;5044858;28;20024;-72
2022/04/30 03:58:44;;;;;;;0.52;0.52;;;20.20;99.90;;;;;;5051519;28;20036;-73
2022/04/30 04:01:11;;;;;;;0.00;0.00;;;20.30;99.90;;;;;;5052955;28;20029;-73
2022/04/30 04:03:38;;;;;;;0.90;0.90;;;20.30;99.90;;;;;;5051583;28;20121;-73
2022/04/30 04:06:04;;;;;;;1.25;1.20;;;20.00;99.90;;;;;;5047159;28;20143;-73
2022/04/30 04:08:30;;;;;;;0.20;0.20;;;19.90;99.90;;;;;;5040233;28;20032;-74
2022/04/30 04:10:56;;;;;;;22.13;20.90;;;20.20;99.90;;;;;;5038565;28;20037;-73
2022/04/30 04:18:51;;;;;;;2.67;2.47;;;21.00;96.00;;;;;;5051091;28;20032;-72
2022/04/30 04:21:19;;;;;;;1.75;1.42;;;21.20;93.30;;;;;;5046154;28;20021;-72
2022/04/30 04:26:30;;;;;;;2.78;2.58;;;21.30;91.30;;;;;;5044913;28;20044;-74
2022/04/30 04:28:56;;;;;;;0.22;0.22;;;21.40;90.40;;;;;;5047216;28;20021;-73
2022/04/30 04:31:22;;;;;;;26.65;2.58;;;21.40;90.40;;;;;;5049708;28;20017;-72
2022/04/30 04:33:49;;;;;;;2.17;0.73;;;21.50;85.70;;;;;;5051896;28;20150;-73
2022/04/30 04:36:18;;;;;;;10.32;1.75;;;21.50;86.00;;;;;;5046089;28;20017;-73
2022/04/30 04:38:44;;;;;;;3.13;1.65;;;21.40;83.70;;;;;;5045424;28;20021;-73
2022/04/30 04:41:10;;;;;;;9.57;3.60;;;21.20;86.30;;;;;;5048494;28;20107;-73
2022/04/30 04:43:36;;;;;;;3.63;2.10;;;21.30;84.60;;;;;;5048232;28;20289;-73
2022/04/30 04:46:03;;;;;;;9.10;6.53;;;21.30;82.80;;;;;;5051857;28;20028;-73
2022/04/30 04:48:30;;;;;;;3.80;2.00;;;21.30;82.50;;;;;;5052190;28;20032;-73
2022/04/30 04:50:56;;;;;;;11.20;3.42;;;21.50;80.50;;;;;;5052279;28;20021;-72
2022/04/30 04:53:22;;;;;;;4.20;2.55;;;21.70;80.30;;;;;;5045296;28;20508;-72
2022/04/30 04:55:49;;;;;;;12.15;4.45;;;21.90;78.70;;;;;;5046919;28;20032;-73
2022/04/30 04:58:15;;;;;;;0.30;0.30;;;22.10;76.50;;;;;;5042328;28;20028;-72
2022/04/30 05:00:41;;;;;;;6.65;2.47;;;22.20;76.60;;;;;;5044944;28;20064;-73
2022/04/30 05:03:07;;;;;;;0.38;0.15;;;22.60;75.10;;;;;;5039661;28;20053;-73
2022/04/30 05:05:35;;;;;;;2.78;2.63;;;22.50;73.10;;;;;;5051697;28;20021;-72
2022/04/30 05:08:01;;;;;;;4.40;1.38;;;22.80;70.60;;;;;;5051667;28;20029;-72
2022/04/30 05:10:28;;;;;;;5.63;1.42;;;23.10;65.40;;;;;;5052771;28;20026;-73
2022/04/30 05:12:54;;;;;;;11.38;2.88;;;23.00;67.00;;;;;;5046033;28;20053;-73
2022/04/30 05:15:20;;;;;;;3.05;2.95;;;22.80;62.80;;;;;;5050720;28;20064;-73
2022/04/30 05:17:46;;;;;;;0.52;0.52;;;23.00;65.00;;;;;;5050615;28;20057;-74
2022/04/30 05:20:12;;;;;;;1.23;1.02;;;23.30;64.00;;;;;;5043761;28;20053;-73
2022/04/30 05:22:38;;;;;;;3.17;2.53;;;23.80;59.10;;;;;;5053226;28;20035;-73
2022/04/30 05:25:04;;;;;;;7.13;2.35;;;23.50;58.80;;;;;;5052250;28;20049;-73
2022/04/30 05:27:30;;;;;;;5.15;2.08;;;23.10;58.20;;;;;;5050730;28;20601;-72
2022/04/30 05:29:56;;;;;;;24.58;4.10;;;22.80;59.70;;;;;;5047959;28;20204;-72
2022/04/30 05:32:22;;;;;;;11.00;2.78;;;22.90;60.00;;;;;;5045604;28;20496;-71
2022/04/30 05:34:48;;;;;;;11.20;3.40;;;23.10;60.20;;;;;;5055282;28;20059;-72
2022/04/30 05:37:14;;;;;;;6.32;2.28;;;23.10;59.20;;;;;;5056366;28;20025;-72
2022/04/30 05:39:40;;;;;;;7.43;1.92;;;23.00;59.40;;;;;;5046855;28;20041;-72
2022/04/30 05:42:06;;;;;;;0.17;0.13;;;22.80;59.10;;;;;;5040757;28;20087;-72
2022/04/30 05:44:32;;;;;;;1.98;1.65;;;22.80;57.70;;;;;;5043591;28;20354;-70
2022/04/30 05:46:58;;;;;;;14.95;2.00;;;23.10;58.70;;;;;;5047243;28;20489;-73
2022/04/30 05:49:24;;;;;;;17.45;2.08;;;23.40;56.60;;;;;;5049766;28;20493;-73
2022/04/30 05:51:51;;;;;;;11.90;1.92;;;23.40;56.40;;;;;;5049561;28;20091;-70
2022/04/30 05:54:17;;;;;;;5.88;2.35;;;23.30;54.20;;;;;;5049181;28;20029;-71
2022/04/30 05:56:43;;;;;;;7.45;1.45;;;23.30;56.40;;;;;;5052209;28;20451;-71
2022/04/30 05:59:09;;;;;;;0.00;0.00;;;23.50;56.30;;;;;;5049221;28;20112;-72
2022/04/30 06:01:35;;;;;;;0.05;0.05;;;23.40;56.90;;;;;;5047408;28;20388;-72
2022/04/30 06:04:02;;;;;;;15.18;1.50;;;23.70;56.40;;;;;;5048451;28;20107;-71
2022/04/30 06:06:28;;;;;;;13.13;1.67;;;23.90;55.40;;;;;;5048178;28;20068;-73
2022/04/30 06:08:54;;;;;;;1.58;0.73;;;23.70;54.30;;;;;;5048369;28;20024;-74
2022/04/30 06:11:21;;;;;;;0.85;0.10;;;23.70;54.70;;;;;;5047185;28;20032;-73
2022/04/30 06:13:47;;;;;;;8.43;1.80;;;23.90;55.10;;;;;;5051775;28;20028;-71
2022/04/30 06:16:13;;;;;;;5.07;1.55;;;23.90;55.10;;;;;;5042478;28;20049;-71
2022/04/30 06:18:39;;;;;;;3.80;1.27;;;23.80;53.70;;;;;;5048026;28;20025;-71
2022/04/30 06:21:05;;;;;;;1.05;0.88;;;23.80;53.50;;;;;;5049236;28;20021;-71
2022/04/30 06:23:31;;;;;;;1.83;0.52;;;23.60;52.70;;;;;;5045751;28;20028;-71
2022/04/30 06:25:58;;;;;;;8.18;0.98;;;23.60;54.80;;;;;;5045704;28;20377;-71
2022/04/30 06:28:24;;;;;;;2.83;1.83;;;23.80;54.70;;;;;;5045077;28;20017;-71
2022/04/30 06:30:50;;;;;;;11.30;1.35;;;24.10;54.50;;;;;;5049042;28;20088;-71
2022/04/30 06:33:16;;;;;;;6.10;2.00;;;24.30;54.30;;;;;;5049743;28;20104;-72
2022/04/30 06:35:43;;;;;;;4.78;1.85;;;24.40;54.70;;;;;;5049334;28;20365;-71
2022/04/30 06:38:11;;;;;;;4.07;3.83;;;24.40;54.40;;;;;;5049530;28;20033;-72
2022/04/30 06:40:37;;;;;;;2.70;1.80;;;24.40;55.00;;;;;;5049351;28;20436;-71
2022/04/30 06:43:03;;;;;;;0.68;0.45;;;24.60;54.70;;;;;;5040951;28;20037;-72
2022/04/30 06:45:29;;;;;;;3.03;0.77;;;24.90;54.40;;;;;;5041027;28;20493;-72
2022/04/30 06:47:55;;;;;;;3.85;1.17;;;25.10;55.20;;;;;;5049643;28;20420;-72
2022/04/30 06:50:21;;;;;;;0.05;0.05;;;25.30;54.00;;;;;;5048838;28;20021;-73
2022/04/30 06:58:17;;;;;;;1.35;0.80;;;25.40;52.30;;;;;;5045728;28;20406;-70
2022/04/30 07:03:32;;;;;;;0.00;0.00;;;24.80;53.40;;;;;;5049381;28;20032;-71
2022/04/30 07:06:09;;;;;;;0.43;0.40;;;25.00;52.40;;;;;;5047258;28;20070;-72
2022/04/30 07:08:35;;;;;;;0.00;0.00;;;25.10;52.10;;;;;;5045541;28;20377;-71
2022/04/30 07:11:02;;;;;;;0.85;0.30;;;25.10;52.30;;;;;;5050135;28;20473;-71
2022/04/30 07:13:30;;;;;;;4.90;3.10;;;25.40;51.10;;;;;;5049308;28;20384;-72
2022/04/30 07:15:56;;;;;;;4.30;0.32;;;25.20;49.40;;;;;;5048354;28;20029;-71
2022/04/30 07:18:22;;;;;;;0.10;0.10;;;25.00;50.50;;;;;;5052536;28;20023;-71
2022/04/30 07:20:49;;;;;;;3.38;1.00;;;25.00;50.50;;;;;;5048694;28;20020;-75
2022/04/30 07:23:15;;;;;;;0.28;0.28;;;25.10;48.70;;;;;;5050980;28;20028;-74
2022/04/30 07:26:00;;;;;;;4.53;0.93;;;25.00;49.10;;;;;;5049994;28;20023;-73
2022/04/30 07:28:30;;;;;;;2.83;1.20;;;25.10;49.50;;;;;;5040973;28;20055;-73
2022/04/30 07:30:56;;;;;;;3.20;2.30;;;25.00;50.10;;;;;;5042558;28;20034;-73
2022/04/30 07:33:22;;;;;;;1.73;1.08;;;25.10;50.50;;;;;;5043552;28;20025;-73
2022/04/30 07:35:49;;;;;;;1.73;1.17;;;25.20;50.20;;;;;;5044659;28;20032;-74
2022/04/30 07:38:15;;;;;;;1.98;0.75;;;25.20;50.40;;;;;;5050169;28;20040;-73
2022/04/30 07:40:45;;;;;;;3.40;2.60;;;25.50;51.00;;;;;;5045784;28;20028;-74
2022/04/30 07:43:11;;;;;;;4.95;3.33;;;25.60;50.30;;;;;;5049534;28;20481;-74
2022/04/30 07:46:00;;;;;;;2.97;1.73;;;25.40;49.40;;;;;;5052149;28;20132;-74
2022/04/30 07:48:26;;;;;;;2.92;1.40;;;25.10;49.60;;;;;;5046525;28;20104;-72
2022/04/30 07:50:57;;;;;;;0.00;0.00;;;25.00;50.40;;;;;;5046316;28;20421;-72
2022/04/30 07:53:25;;;;;;;3.47;1.70;;;25.00;51.50;;;;;;5045501;28;20067;-71
2022/04/30 07:55:53;;;;;;;3.78;1.63;;;25.20;50.60;;;;;;5045882;28;20028;-72
2022/04/30 07:58:19;;;;;;;4.68;1.27;;;25.30;51.00;;;;;;5050337;28;20448;-73
2022/04/30 08:00:46;;;;;;;0.80;0.22;;;25.20;50.90;;;;;;5046619;28;20025;-71
2022/04/30 08:03:15;;;;;;;3.50;1.90;;;25.30;51.20;;;;;;5046326;28;20021;-70
2022/04/30 08:05:41;;;;;;;8.43;3.22;;;25.20;49.00;;;;;;5048158;28;20369;-71
2022/04/30 08:08:07;;;;;;;8.65;2.10;;;25.10;50.30;;;;;;5047563;28;20083;-71
2022/04/30 08:10:33;;;;;;;2.60;1.35;;;25.30;49.50;;;;;;5046741;28;20073;-70
2022/04/30 08:12:59;;;;;;;2.75;1.63;;;25.20;49.10;;;;;;5049554;28;20112;-72
2022/04/30 08:15:26;;;;;;;1.85;1.65;;;25.10;50.60;;;;;;5049802;28;20499;-72
2022/04/30 08:17:53;;;;;;;14.13;2.05;;;25.40;50.50;;;;;;5047540;28;20025;-72
2022/04/30 08:20:19;;;;;;;5.03;4.47;;;25.80;50.50;;;;;;5047613;28;20032;-72
2022/04/30 08:22:45;;;;;;;2.00;1.73;;;26.20;49.60;;;;;;5047813;28;20037;-72
2022/04/30 08:25:17;;;;;;;11.30;1.75;;;26.40;50.30;;;;;;5042766;28;20036;-72
2022/04/30 08:27:49;;;;;;;10.93;2.22;;;26.20;50.20;;;;;;5050484;28;20358;-71
2022/04/30 08:30:26;;;;;;;10.00;3.85;;;25.90;50.20;;;;;;5047714;28;20017;-73
2022/04/30 08:33:01;;;;;;;3.35;2.15;;;25.80;51.20;;;;;;5045647;28;20030;-74
2022/04/30 08:35:27;;;;;;;4.43;1.52;;;25.70;50.90;;;;;;5043601;28;20060;-74
2022/04/30 08:38:27;;;;;;;0.63;0.52;;;25.70;48.80;;;;;;5047901;28;20044;-74
2022/04/30 08:40:59;;;;;;;2.45;0.98;;;25.60;50.10;;;;;;5051980;28;20048;-75
2022/04/30 08:43:28;;;;;;;2.25;0.70;;;25.90;49.80;;;;;;5055103;28;20465;-75
2022/04/30 08:46:37;;;;;;;9.68;3.85;;;26.10;49.90;;;;;;5054267;28;20049;-73
2022/04/30 08:49:03;;;;;;;2.58;0.73;;;25.80;50.50;;;;;;5035503;28;20033;-75
2022/04/30 08:51:29;;;;;;;1.75;1.65;;;25.70;50.00;;;;;;5052810;28;20021;-75
2022/04/30 08:53:55;;;;;;;3.35;3.15;;;25.70;50.50;;;;;;5052826;28;20120;-73
2022/04/30 08:57:15;;;;;;;1.08;0.43;;;25.80;50.70;;;;;;5053137;28;20103;-75
2022/04/30 08:59:40;;;;;;;2.65;1.20;;;26.30;50.90;;;;;;5044302;28;20087;-74
2022/04/30 09:02:11;;;;;;;0.00;0.00;;;26.40;49.50;;;;;;5052369;28;20021;-76
2022/04/30 09:04:42;;;;;;;0.10;0.10;;;26.50;49.30;;;;;;5041655;28;20098;-75
2022/04/30 09:07:13;;;;;;;0.13;0.13;;;27.00;49.00;;;;;;5045291;28;20036;-74
2022/04/30 09:09:39;;;;;;;0.00;0.00;;;27.30;48.40;;;;;;5047610;28;20425;-75
2022/04/30 09:12:10;;;;;;;2.92;1.05;;;27.40;49.00;;;;;;5040505;28;20101;-75
2022/04/30 09:14:41;;;;;;;4.20;2.30;;;27.40;47.00;;;;;;5047984;28;20025;-75
2022/04/30 09:17:13;;;;;;;0.32;0.10;;;27.10;48.50;;;;;;5041798;28;20024;-74
2022/04/30 09:19:46;;;;;;;0.00;0.00;;;27.10;49.20;;;;;;5046884;28;20072;-75
2022/04/30 09:22:13;;;;;;;6.13;3.25;;;27.10;48.70;;;;;;5050926;28;20083;-73
2022/04/30 09:24:49;;;;;;;0.50;0.43;;;26.80;48.70;;;;;;5053395;28;20021;-74
2022/04/30 09:27:17;;;;;;;1.60;0.30;;;26.70;48.80;;;;;;5051091;28;20391;-74
2022/04/30 09:29:44;;;;;;;0.20;0.20;;;26.80;48.30;;;;;;5049497;28;20037;-74
2022/04/30 09:32:27;;;;;;;1.92;1.77;;;26.90;48.10;;;;;;5046896;28;20032;-75
2022/04/30 09:37:46;;;;;;;0.55;0.22;;;26.90;48.00;;;;;;5050952;28;20039;-75
2022/04/30 09:40:15;;;;;;;0.57;0.43;;;26.80;49.00;;;;;;5053581;28;20047;-74
2022/04/30 09:42:42;;;;;;;2.08;1.98;;;26.60;50.30;;;;;;5053595;28;20029;-75
2022/04/30 09:45:29;;;;;;;2.60;2.00;;;26.90;50.80;;;;;;5051550;28;20032;-75
2022/04/30 09:47:56;;;;;;;0.35;0.28;;;27.20;47.70;;;;;;5045160;28;20017;-77
2022/04/30 09:55:56;;;;;;;0.22;0.22;;;27.40;46.00;;;;;;5047148;28;20097;-75
2022/04/30 09:58:27;;;;;;;3.63;3.33;;;27.40;44.40;;;;;;5050483;28;20469;-74
2022/04/30 10:00:58;;;;;;;26.75;0.93;;;27.40;44.50;;;;;;5051438;28;20067;-75
2022/04/30 10:03:34;;;;;;;0.00;0.00;;;27.30;45.30;;;;;;5047305;28;20335;-76
2022/04/30 10:06:24;;;;;;;0.00;0.00;;;27.20;46.50;;;;;;5042785;28;20562;-75
2022/04/30 10:08:55;;;;;;;0.00;0.00;;;27.20;46.20;;;;;;5050115;28;20475;-75
2022/04/30 10:11:38;;;;;;;0.00;0.00;;;27.30;45.00;;;;;;5050403;28;20021;-76
2022/04/30 10:14:31;;;;;;;0.00;0.00;;;27.10;44.80;;;;;;5044644;28;20098;-76
2022/04/30 10:17:16;;;;;;;4.68;4.43;;;27.20;42.30;;;;;;5045454;28;20029;-74
2022/04/30 10:19:45;;;;;;;0.00;0.00;;;27.30;42.10;;;;;;5047815;28;20028;-76
2022/04/30 10:22:15;;;;;;;1.48;1.48;;;27.10;42.80;;;;;;5044898;28;20455;-74
2022/04/30 10:24:44;;;;;;;2.85;0.32;;;27.20;43.20;;;;;;5047168;28;20477;-75
2022/04/30 10:27:10;;;;;;;0.00;0.00;;;27.30;44.30;;;;;;5048198;28;20024;-74
2022/04/30 10:29:55;;;;;;;0.32;0.30;;;27.60;42.80;;;;;;5049058;28;20021;-74
2022/04/30 10:32:33;;;;;;;0.00;0.00;;;27.50;44.00;;;;;;5049782;28;20079;-75
2022/04/30 10:35:00;;;;;;;0.00;0.00;;;27.50;45.20;;;;;;5051640;28;20076;-75
2022/04/30 10:37:28;;;;;;;0.00;0.00;;;27.60;45.10;;;;;;5036704;28;20025;-75
2022/04/30 10:40:02;;;;;;;0.00;0.00;;;27.60;44.00;;;;;;5040653;28;20061;-75
2022/04/30 10:42:30;;;;;;;0.00;0.00;;;27.80;43.40;;;;;;5047574;28;20031;-75
2022/04/30 10:44:56;;;;;;;4.45;2.33;;;28.00;43.40;;;;;;5049061;28;20100;-75
2022/04/30 10:47:22;;;;;;;0.00;0.00;;;28.30;43.10;;;;;;5050437;28;20469;-74
2022/04/30 10:49:49;;;;;;;0.00;0.00;;;28.40;43.50;;;;;;5050324;28;20078;-76
2022/04/30 10:52:25;;;;;;;0.17;0.17;;;28.60;44.00;;;;;;5052316;28;20045;-76
2022/04/30 10:54:58;;;;;;;0.00;0.00;;;28.50;41.40;;;;;;5051594;28;20025;-77
2022/04/30 10:57:24;;;;;;;0.00;0.00;;;28.30;43.90;;;;;;5051210;28;20028;-75
2022/04/30 11:00:17;;;;;;;0.00;0.00;;;27.70;43.30;;;;;;5051664;28;20029;-76
2022/04/30 11:02:43;;;;;;;0.00;0.00;;;27.40;44.40;;;;;;5053318;28;20037;-76
2022/04/30 11:05:22;;;;;;;6.53;5.93;;;27.40;45.50;;;;;;5053867;28;20021;-77
2022/04/30 11:07:52;;;;;;;0.00;0.00;;;27.30;45.50;;;;;;5058360;28;20020;-78
2022/04/30 11:10:18;;;;;;;11.98;8.93;;;27.20;45.10;;;;;;5045483;28;20381;-76
2022/04/30 11:13:05;;;;;;;0.00;0.00;;;27.20;44.60;;;;;;5049817;28;20040;-77
2022/04/30 11:15:33;;;;;;;0.00;0.00;;;27.40;44.90;;;;;;5046065;28;20145;-78
2022/04/30 11:18:19;;;;;;;0.00;0.00;;;27.70;45.80;;;;;;5049387;28;20107;-76
2022/04/30 11:23:41;;;;;;;0.00;0.00;;;28.20;44.30;;;;;;5050935;28;20062;-76
2022/04/30 11:26:17;;;;;;;0.00;0.00;;;28.40;44.60;;;;;;5049133;28;20115;-73
2022/04/30 11:28:48;;;;;;;0.00;0.00;;;28.40;45.90;;;;;;5048277;28;20025;-74
2022/04/30 11:31:19;;;;;;;0.00;0.00;;;28.00;46.70;;;;;;5052484;28;20017;-72
2022/04/30 11:33:46;;;;;;;0.00;0.00;;;27.50;45.60;;;;;;5057332;28;20032;-73
2022/04/30 11:36:12;;;;;;;1.55;1.55;;;27.60;45.00;;;;;;5055015;28;20134;-72
2022/04/30 11:38:39;;;;;;;0.00;0.00;;;27.60;48.70;;;;;;5049352;28;20565;-73
2022/04/30 11:41:08;;;;;;;0.00;0.00;;;27.40;48.60;;;;;;5046812;28;20056;-73
2022/04/30 11:43:34;;;;;;;0.00;0.00;;;27.40;48.40;;;;;;5049099;28;20021;-75
2022/04/30 11:46:03;;;;;;;0.00;0.00;;;27.50;47.00;;;;;;5049869;28;20021;-74
2022/04/30 11:48:38;;;;;;;0.00;0.00;;;27.50;47.40;;;;;;5045679;28;20052;-73
2022/04/30 11:51:08;;;;;;;0.00;0.00;;;27.70;47.80;;;;;;5051449;28;20366;-73
2022/04/30 11:53:37;;;;;;;0.00;0.00;;;27.60;46.60;;;;;;5050699;28;20045;-74
2022/04/30 11:56:04;;;;;;;0.00;0.00;;;27.60;46.30;;;;;;5040874;28;20024;-73
2022/04/30 11:58:45;;;;;;;0.00;0.00;;;27.60;49.00;;;;;;5044250;28;20112;-73
2022/04/30 12:01:25;;;;;;;0.00;0.00;;;26.90;50.40;;;;;;5045344;28;20026;-74
2022/04/30 12:04:05;;;;;;;0.75;0.75;;;26.70;57.10;;;;;;5043477;28;20075;-73
2022/04/30 12:06:32;;;;;;;1.08;0.77;;;26.10;53.70;;;;;;5046065;28;20036;-74
2022/04/30 12:09:16;;;;;;;0.40;0.20;;;25.60;55.30;;;;;;5045963;28;20447;-74
2022/04/30 12:11:51;;;;;;;0.00;0.00;;;25.30;61.30;;;;;;5050214;28;20064;-73
2022/04/30 12:14:18;;;;;;;0.00;0.00;;;25.40;58.70;;;;;;5047343;28;20017;-73
2022/04/30 12:16:47;;;;;;;3.10;3.00;;;25.50;55.10;;;;;;5047947;28;20025;-73
2022/04/30 12:25:17;;;;;;;0.00;0.00;;;25.60;52.50;;;;;;5046253;28;20086;-73
2022/04/30 12:27:55;;;;;;;0.00;0.00;;;25.60;53.60;;;;;;5039772;28;20026;-73
2022/04/30 12:30:23;;;;;;;16.77;15.32;;;25.70;54.70;;;;;;5043796;28;20477;-73
2022/04/30 12:33:04;;;;;;;2.00;1.90;;;25.90;53.20;;;;;;5031415;28;20025;-73
2022/04/30 12:35:31;;;;;;;0.00;0.00;;;26.00;52.60;;;;;;5043763;28;20551;-73
2022/04/30 12:38:11;;;;;;;0.00;0.00;;;26.00;52.10;;;;;;5048240;28;20022;-73
2022/04/30 12:40:43;;;;;;;0.47;0.47;;;26.00;53.00;;;;;;5050289;28;20107;-74
2022/04/30 12:43:10;;;;;;;0.03;0.03;;;26.10;54.20;;;;;;5049686;28;20033;-73
2022/04/30 12:45:39;;;;;;;0.00;0.00;;;26.10;54.60;;;;;;5051634;28;20024;-73
2022/04/30 12:48:06;;;;;;;0.00;0.00;;;26.10;53.80;;;;;;5044785;28;20150;-74
2022/04/30 12:50:33;;;;;;;0.00;0.00;;;26.00;54.90;;;;;;5047260;28;20022;-73
2022/04/30 12:52:59;;;;;;;0.00;0.00;;;25.70;56.90;;;;;;5040287;28;20053;-73
2022/04/30 12:55:26;;;;;;;0.00;0.00;;;25.50;57.50;;;;;;5047792;28;20021;-73
2022/04/30 12:57:52;;;;;;;0.00;0.00;;;25.40;57.70;;;;;;5046670;28;20028;-73
2022/04/30 13:00:18;;;;;;;0.00;0.00;;;25.40;58.90;;;;;;5048725;28;20092;-73
2022/04/30 13:02:46;;;;;;;0.00;0.00;;;25.50;58.60;;;;;;5051739;28;20025;-72
2022/04/30 13:05:14;;;;;;;0.00;0.00;;;25.50;58.50;;;;;;5051700;28;20023;-72
2022/04/30 13:07:43;;;;;;;0.00;0.00;;;25.20;60.00;;;;;;5047222;28;20029;-72
2022/04/30 13:15:41;;;;;;;0.00;0.00;;;24.50;63.30;;;;;;5033897;28;20040;-73
2022/04/30 13:18:08;;;;;;;0.00;0.00;;;24.30;63.80;;;;;;5041228;28;20032;-73
2022/04/30 13:20:35;;;;;;;0.00;0.00;;;24.30;64.20;;;;;;5034509;28;20037;-74
2022/04/30 13:23:01;;;;;;;0.10;0.10;;;24.20;64.80;;;;;;5032117;28;20137;-73
2022/04/30 13:25:28;;;;;;;4.25;3.85;;;24.10;65.30;;;;;;5032112;28;20531;-73
2022/04/30 13:28:04;;;;;;;20.00;19.00;;;24.30;64.60;;;;;;5036356;28;20080;-74
2022/04/30 13:30:30;;;;;;;0.00;0.00;;;24.20;66.10;;;;;;5055332;28;20025;-74
2022/04/30 13:32:56;;;;;;;0.00;0.00;;;24.00;66.80;;;;;;5055082;28;20370;-73
2022/04/30 13:35:22;;;;;;;0.00;0.00;;;23.90;67.50;;;;;;5054831;28;20017;-73
2022/04/30 13:37:49;;;;;;;0.00;0.00;;;23.90;67.30;;;;;;5055077;28;20062;-74
2022/04/30 13:40:16;;;;;;;0.00;0.00;;;24.00;67.40;;;;;;5053895;28;20013;-72
2022/04/30 13:42:45;;;;;;;0.00;0.00;;;24.00;68.10;;;;;;5055031;28;20029;-73
2022/04/30 13:45:12;;;;;;;0.00;0.00;;;23.90;68.50;;;;;;5054991;28;20655;-73
2022/04/30 13:47:40;;;;;;;6.22;5.25;;;23.80;69.80;;;;;;5055092;28;20029;-73